Time;durP1;ratioP1;P1;durP2;ratioP2;P2;SDS_P1;SDS_P2;PMS_P1;PMS_P2;Temp;Humidity;BMP_temperature;BMP_pressure;BME280_temperature;BME280_humidity;BME280_pressure;Samples;Min_cycle;Max_cycle;Signal;HPM_P1;HPM_P2
2022/08/13 00:01:26;;;;;;;8.73;4.45;;;;;;;;;;4233805;33;20112;-62
2022/08/13 00:03:53;;;;;;;5.80;4.62;;;;;;;;;;4233967;33;20511;-61
2022/08/13 00:34:49;;;;;;;5.30;4.10;;;;;;;;;;4960642;27;20087;-60
2022/08/13 00:37:15;;;;;;;11.02;4.78;;;;;;;;;;4235975;33;20082;-59
2022/08/13 00:39:41;;;;;;;11.27;4.60;;;;;;;;;;4233688;33;20461;-61
2022/08/13 00:42:08;;;;;;;8.35;4.85;;;;;;;;;;4233476;33;20093;-62
2022/08/13 00:44:34;;;;;;;9.98;4.72;;;;;;;;;;4232141;33;20456;-61
2022/08/13 00:49:47;;;;;;;14.63;5.28;;;;;;;;;;4233596;33;20449;-62
2022/08/13 00:52:13;;;;;;;10.30;4.75;;;;;;;;;;4233550;33;20552;-61
2022/08/13 00:54:42;;;;;;;9.15;5.70;;;;;;;;;;4233749;33;20098;-70
2022/08/13 00:57:12;;;;;;;10.95;5.47;;;;;;;;;;4232270;33;20117;-69
2022/08/13 00:59:38;;;;;;;6.80;4.70;;;;;;;;;;4233526;33;20112;-68
2022/08/13 01:02:04;;;;;;;11.43;5.10;;;;;;;;;;4233375;33;20612;-60
2022/08/13 01:04:31;;;;;;;9.13;4.53;;;;;;;;;;4233495;33;20109;-60
2022/08/13 01:06:59;;;;;;;8.95;4.37;;;;;;;;;;4233423;33;20170;-59
2022/08/13 01:09:37;;;;;;;7.82;4.68;;;;;;;;;;4233400;33;20506;-60
2022/08/13 01:12:04;;;;;;;8.43;4.75;;;;;;;;;;4233208;33;20137;-60
2022/08/13 01:14:32;;;;;;;7.57;4.65;;;;;;;;;;4233161;33;20200;-68
2022/08/13 01:17:02;;;;;;;6.60;4.32;;;;;;;;;;4232088;33;20085;-68
2022/08/13 01:19:30;;;;;;;7.72;4.55;;;;;;;;;;4231924;33;20140;-68
2022/08/13 01:21:57;;;;;;;7.60;4.75;;;;;;;;;;4231868;33;20433;-69
2022/08/13 01:24:24;;;;;;;6.10;4.20;;;;;;;;;;4231904;33;20223;-70
2022/08/13 01:26:52;;;;;;;7.62;4.60;;;;;;;;;;4233259;33;20108;-70
2022/08/13 01:29:19;;;;;;;13.35;5.43;;;;;;;;;;4208956;33;20137;-70
2022/08/13 01:31:45;;;;;;;10.40;5.32;;;;;;;;;;4233066;33;20219;-70
2022/08/13 01:34:12;;;;;;;7.75;4.95;;;;;;;;;;4233268;33;20545;-70
2022/08/13 01:36:39;;;;;;;7.47;4.95;;;;;;;;;;4219906;33;20508;-70
2022/08/13 01:39:05;;;;;;;10.07;4.95;;;;;;;;;;4233154;33;20135;-70
2022/08/13 01:41:32;;;;;;;10.00;5.50;;;;;;;;;;4231913;33;20101;-70
2022/08/13 01:44:04;;;;;;;9.43;5.25;;;;;;;;;;4220134;33;20184;-70
2022/08/13 01:50:28;;;;;;;8.48;5.03;;;;;;;;;;4233035;33;20398;-71
2022/08/13 01:52:04;;;;;;;8.90;5.40;;;;;;;;;;4233107;33;20093;-70
2022/08/13 01:54:33;;;;;;;11.30;4.45;;;;;;;;;;4231587;33;20572;-70
2022/08/13 01:57:06;;;;;;;8.27;4.82;;;;;;;;;;4232960;33;20121;-70
2022/08/13 01:59:34;;;;;;;15.50;5.85;;;;;;;;;;4231640;33;20124;-70
2022/08/13 02:02:04;;;;;;;8.93;5.60;;;;;;;;;;4232905;33;20164;-70
2022/08/13 02:04:32;;;;;;;10.50;5.32;;;;;;;;;;4220145;33;20109;-71
2022/08/13 02:06:59;;;;;;;14.87;6.45;;;;;;;;;;4231487;33;20136;-70
2022/08/13 02:09:26;;;;;;;14.73;8.43;;;;;;;;;;4231602;33;20521;-71
2022/08/13 02:11:52;;;;;;;12.85;6.45;;;;;;;;;;4232794;33;20175;-71
2022/08/13 02:14:21;;;;;;;13.85;7.37;;;;;;;;;;4231361;33;20113;-70
2022/08/13 02:16:47;;;;;;;10.27;7.65;;;;;;;;;;4219800;33;20545;-70
2022/08/13 02:19:13;;;;;;;12.40;6.05;;;;;;;;;;4232811;33;20449;-70
2022/08/13 02:21:44;;;;;;;21.02;6.70;;;;;;;;;;4232086;33;20102;-70
2022/08/13 02:24:14;;;;;;;22.05;6.85;;;;;;;;;;4232875;33;20133;-70
2022/08/13 02:26:42;;;;;;;11.65;6.78;;;;;;;;;;4233030;33;20108;-70
2022/08/13 02:29:12;;;;;;;16.00;7.30;;;;;;;;;;4231642;33;20136;-70
2022/08/13 02:31:39;;;;;;;16.83;7.20;;;;;;;;;;4231239;33;20108;-70
2022/08/13 02:34:05;;;;;;;6.93;5.55;;;;;;;;;;4232680;33;20123;-70
2022/08/13 02:36:31;;;;;;;14.90;6.00;;;;;;;;;;4231229;33;20117;-70
2022/08/13 02:39:04;;;;;;;13.05;8.05;;;;;;;;;;4232507;33;20119;-70
2022/08/13 02:41:39;;;;;;;11.77;6.72;;;;;;;;;;4232605;33;20132;-70
2022/08/13 02:44:07;;;;;;;11.77;6.87;;;;;;;;;;4232667;33;20100;-70
2022/08/13 02:46:33;;;;;;;18.05;6.90;;;;;;;;;;4232777;33;20112;-71
2022/08/13 02:48:59;;;;;;;12.80;6.62;;;;;;;;;;4232547;33;20228;-70
2022/08/13 02:51:26;;;;;;;13.95;6.50;;;;;;;;;;4232459;33;20108;-70
2022/08/13 02:53:53;;;;;;;15.18;7.35;;;;;;;;;;4231149;33;20125;-70
2022/08/13 02:56:19;;;;;;;13.25;7.22;;;;;;;;;;4232519;33;20124;-70
2022/08/13 02:58:45;;;;;;;10.05;6.72;;;;;;;;;;4232419;33;20108;-70
2022/08/13 03:01:14;;;;;;;16.25;7.12;;;;;;;;;;4232417;33;20119;-70
2022/08/13 03:03:40;;;;;;;9.50;6.07;;;;;;;;;;4232706;33;20100;-70
2022/08/13 03:06:10;;;;;;;13.13;6.50;;;;;;;;;;4232340;33;20093;-70
2022/08/13 03:08:37;;;;;;;11.00;6.72;;;;;;;;;;4232365;33;20112;-71
2022/08/13 03:11:03;;;;;;;13.70;6.22;;;;;;;;;;4231107;33;20143;-69
2022/08/13 03:13:35;;;;;;;12.98;6.03;;;;;;;;;;4230889;33;20197;-70
2022/08/13 03:16:02;;;;;;;10.75;6.05;;;;;;;;;;4231004;33;20089;-70
2022/08/13 03:18:29;;;;;;;9.27;6.15;;;;;;;;;;4231194;33;20209;-70
2022/08/13 03:20:55;;;;;;;15.13;7.32;;;;;;;;;;4232712;33;20105;-70
2022/08/13 03:23:23;;;;;;;16.00;6.95;;;;;;;;;;4232581;33;20208;-70
2022/08/13 03:25:50;;;;;;;11.23;6.37;;;;;;;;;;4232546;33;20512;-70
2022/08/13 03:28:16;;;;;;;13.52;6.00;;;;;;;;;;4230878;33;20081;-70
2022/08/13 03:30:43;;;;;;;11.12;5.55;;;;;;;;;;4232091;33;20188;-70
2022/08/13 03:33:13;;;;;;;18.33;6.20;;;;;;;;;;4231988;33;20465;-70
2022/08/13 03:35:40;;;;;;;9.73;5.72;;;;;;;;;;4232095;33;20124;-71
2022/08/13 03:38:08;;;;;;;14.23;6.07;;;;;;;;;;4230485;33;20115;-70
2022/08/13 03:43:20;;;;;;;7.35;3.95;;;;;;;;;;4231059;33;20177;-70
2022/08/13 03:45:46;;;;;;;8.18;4.10;;;;;;;;;;4232093;33;20113;-70
2022/08/13 03:48:13;;;;;;;9.15;3.50;;;;;;;;;;4207310;33;20215;-70
2022/08/13 03:50:40;;;;;;;7.93;4.35;;;;;;;;;;4219294;33;20096;-70
2022/08/13 03:53:07;;;;;;;4.12;3.30;;;;;;;;;;4231868;33;20113;-71
2022/08/13 03:55:33;;;;;;;6.03;3.75;;;;;;;;;;4219073;33;20113;-70
2022/08/13 03:58:00;;;;;;;6.85;4.18;;;;;;;;;;4230359;33;20516;-71
2022/08/13 04:00:28;;;;;;;7.60;4.20;;;;;;;;;;4230404;33;20107;-70
2022/08/13 04:03:00;;;;;;;5.43;3.80;;;;;;;;;;4231803;33;20125;-70
2022/08/13 04:05:26;;;;;;;12.85;4.32;;;;;;;;;;4231694;33;20121;-70
2022/08/13 04:07:53;;;;;;;6.57;4.05;;;;;;;;;;4231668;33;20105;-70
2022/08/13 04:10:19;;;;;;;8.00;4.05;;;;;;;;;;4231756;33;20106;-70
2022/08/13 04:12:46;;;;;;;5.82;4.55;;;;;;;;;;4230524;33;20105;-71
2022/08/13 04:15:12;;;;;;;15.15;4.55;;;;;;;;;;4230533;33;20457;-71
2022/08/13 04:17:40;;;;;;;6.50;3.92;;;;;;;;;;4231478;33;20098;-70
2022/08/13 04:20:09;;;;;;;11.50;4.60;;;;;;;;;;4231598;33;20108;-70
2022/08/13 04:22:37;;;;;;;7.07;4.10;;;;;;;;;;4231807;33;20204;-69
2022/08/13 04:25:07;;;;;;;10.10;4.97;;;;;;;;;;4230399;33;20228;-71
2022/08/13 04:27:34;;;;;;;16.77;5.25;;;;;;;;;;4230359;33;20223;-70
2022/08/13 04:30:02;;;;;;;16.37;5.28;;;;;;;;;;4230235;33;20093;-70
2022/08/13 04:32:28;;;;;;;16.05;5.68;;;;;;;;;;4231819;33;20492;-71
2022/08/13 04:34:54;;;;;;;20.55;5.12;;;;;;;;;;4231523;33;20105;-71
2022/08/13 04:37:22;;;;;;;16.45;5.68;;;;;;;;;;4231594;33;20169;-71
2022/08/13 04:39:57;;;;;;;13.55;5.68;;;;;;;;;;4218483;33;20103;-71
2022/08/13 04:42:23;;;;;;;;;;;;;;;;;;4231770;33;20089;-71
2022/08/13 04:44:50;;;;;;;29.30;5.40;;;;;;;;;;4230217;33;20368;-71
2022/08/13 04:47:17;;;;;;;14.13;5.57;;;;;;;;;;4233513;33;20113;-71
2022/08/13 04:49:43;;;;;;;23.27;5.18;;;;;;;;;;4233850;33;20129;-71
2022/08/13 04:52:10;;;;;;;14.32;4.72;;;;;;;;;;4233525;33;20119;-71
2022/08/13 04:54:36;;;;;;;11.55;4.50;;;;;;;;;;4233432;33;20120;-71
2022/08/13 04:57:02;;;;;;;15.77;5.50;;;;;;;;;;4233541;33;20093;-72
2022/08/13 04:59:28;;;;;;;11.18;4.15;;;;;;;;;;4233682;33;20137;-71
2022/08/13 05:01:54;;;;;;;12.00;4.62;;;;;;;;;;4232278;33;20109;-71
2022/08/13 05:04:20;;;;;;;10.15;3.80;;;;;;;;;;4232053;33;20124;-71
2022/08/13 05:06:48;;;;;;;10.18;3.87;;;;;;;;;;4231901;33;20093;-71
2022/08/13 05:09:14;;;;;;;11.57;4.30;;;;;;;;;;4233418;33;20117;-71
2022/08/13 05:11:40;;;;;;;9.50;3.85;;;;;;;;;;4233248;33;20179;-71
2022/08/13 05:14:06;;;;;;;14.05;5.15;;;;;;;;;;4233310;33;20189;-71
2022/08/13 05:16:32;;;;;;;6.53;3.70;;;;;;;;;;4233314;33;20283;-71
2022/08/13 05:18:58;;;;;;;3.78;3.37;;;;;;;;;;4231739;33;20116;-71
2022/08/13 05:21:25;;;;;;;8.50;3.92;;;;;;;;;;4233211;33;20113;-70
2022/08/13 05:23:53;;;;;;;9.88;3.10;;;;;;;;;;4233260;33;20204;-71
2022/08/13 05:26:21;;;;;;;8.65;2.95;;;;;;;;;;4232009;33;20109;-71
2022/08/13 05:28:49;;;;;;;8.65;3.05;;;;;;;;;;4232007;33;20113;-70
2022/08/13 05:31:17;;;;;;;3.58;3.05;;;;;;;;;;4231985;33;20113;-70
2022/08/13 05:33:43;;;;;;;3.92;3.42;;;;;;;;;;4231782;33;20192;-71
2022/08/13 05:36:09;;;;;;;3.92;2.75;;;;;;;;;;4231760;33;20572;-71
2022/08/13 05:38:37;;;;;;;9.88;3.22;;;;;;;;;;4232905;33;20141;-71
2022/08/13 05:41:05;;;;;;;8.05;3.80;;;;;;;;;;4231851;33;20097;-71
2022/08/13 05:43:38;;;;;;;6.70;3.17;;;;;;;;;;4219982;33;20087;-71
2022/08/13 05:46:09;;;;;;;4.82;3.33;;;;;;;;;;4220083;33;20124;-71
2022/08/13 05:48:41;;;;;;;5.45;3.40;;;;;;;;;;4231512;33;20089;-71
2022/08/13 05:51:10;;;;;;;3.30;2.90;;;;;;;;;;4232884;33;20111;-71
2022/08/13 05:53:37;;;;;;;5.05;3.28;;;;;;;;;;4208321;33;20121;-70
2022/08/13 05:56:07;;;;;;;5.55;3.53;;;;;;;;;;4231616;33;20121;-71
2022/08/13 05:58:34;;;;;;;8.93;2.90;;;;;;;;;;4230794;33;20536;-71
2022/08/13 06:03:46;;;;;;;11.67;2.70;;;;;;;;;;4231868;33;20753;-71
2022/08/13 06:06:15;;;;;;;3.15;2.85;;;;;;;;;;4231426;33;20108;-71
2022/08/13 06:08:42;;;;;;;4.43;3.10;;;;;;;;;;4233007;33;20109;-71
2022/08/13 06:11:15;;;;;;;6.50;3.03;;;;;;;;;;4231677;33;20085;-71
2022/08/13 06:13:44;;;;;;;3.45;2.95;;;;;;;;;;4232994;33;20107;-71
2022/08/13 06:16:12;;;;;;;3.85;2.78;;;;;;;;;;4232769;33;20120;-70
2022/08/13 06:18:43;;;;;;;8.07;3.08;;;;;;;;;;4232741;33;20127;-71
2022/08/13 06:21:12;;;;;;;7.00;4.18;;;;;;;;;;4231335;33;20458;-70
2022/08/13 06:23:40;;;;;;;8.75;3.50;;;;;;;;;;4231425;33;20549;-70
2022/08/13 06:26:07;;;;;;;7.40;3.85;;;;;;;;;;4232042;33;20193;-68
2022/08/13 06:28:34;;;;;;;11.02;3.62;;;;;;;;;;4231364;33;20106;-71
2022/08/13 06:31:05;;;;;;;8.50;3.58;;;;;;;;;;4231408;33;20172;-71
2022/08/13 06:33:33;;;;;;;5.55;3.47;;;;;;;;;;4219926;33;20112;-71
2022/08/13 06:36:02;;;;;;;11.15;3.55;;;;;;;;;;4231115;33;20120;-71
2022/08/13 06:38:30;;;;;;;10.93;4.00;;;;;;;;;;4232738;33;20115;-71
2022/08/13 06:41:00;;;;;;;5.28;3.78;;;;;;;;;;4231382;33;20102;-71
2022/08/13 06:43:40;;;;;;;4.47;2.62;;;;;;;;;;4232520;33;20125;-72
2022/08/13 06:46:07;;;;;;;4.87;2.50;;;;;;;;;;4231262;33;20469;-71
2022/08/13 06:48:34;;;;;;;4.00;2.35;;;;;;;;;;4232572;33;20442;-71
2022/08/13 06:51:07;;;;;;;5.40;3.10;;;;;;;;;;4232711;33;20187;-71
2022/08/13 06:53:38;;;;;;;4.00;2.53;;;;;;;;;;4232531;33;20128;-71
2022/08/13 06:56:06;;;;;;;4.22;2.53;;;;;;;;;;4232388;33;20135;-70
2022/08/13 06:58:32;;;;;;;5.57;2.87;;;;;;;;;;4232586;33;20124;-71
2022/08/13 07:00:59;;;;;;;6.28;3.15;;;;;;;;;;4231091;33;20184;-71
2022/08/13 07:03:31;;;;;;;8.07;3.28;;;;;;;;;;4231039;33;20457;-71
2022/08/13 07:05:57;;;;;;;3.67;2.95;;;;;;;;;;4232313;33;20120;-71
2022/08/13 07:08:28;;;;;;;7.43;3.90;;;;;;;;;;4232142;33;20280;-71
2022/08/13 07:13:44;;;;;;;6.47;3.75;;;;;;;;;;4232389;33;20521;-70
2022/08/13 07:16:12;;;;;;;11.38;3.40;;;;;;;;;;4232445;33;20631;-71
2022/08/13 07:18:39;;;;;;;7.80;4.40;;;;;;;;;;4219268;33;20128;-70
2022/08/13 07:21:09;;;;;;;5.00;4.20;;;;;;;;;;4232415;33;20117;-71
2022/08/13 07:23:39;;;;;;;9.77;3.53;;;;;;;;;;4232423;33;20156;-71
2022/08/13 07:26:07;;;;;;;6.90;3.10;;;;;;;;;;4232123;33;20116;-71
2022/08/13 07:28:34;;;;;;;4.12;3.12;;;;;;;;;;4232238;33;20133;-71
2022/08/13 07:31:01;;;;;;;6.12;4.00;;;;;;;;;;4232216;33;20101;-71
2022/08/13 07:33:27;;;;;;;4.20;3.28;;;;;;;;;;4230725;33;20532;-71
2022/08/13 07:35:53;;;;;;;5.25;3.53;;;;;;;;;;4230479;33;20113;-70
2022/08/13 07:38:20;;;;;;;5.70;3.97;;;;;;;;;;4230754;33;20469;-70
2022/08/13 07:40:50;;;;;;;7.15;3.37;;;;;;;;;;4232118;33;20569;-70
2022/08/13 07:43:19;;;;;;;5.70;3.87;;;;;;;;;;4230595;33;20145;-71
2022/08/13 07:46:07;;;;;;;2.58;2.37;;;;;;;;;;4232077;33;20431;-69
2022/08/13 07:48:35;;;;;;;4.78;3.62;;;;;;;;;;4230570;33;20278;-69
2022/08/13 07:51:03;;;;;;;4.97;3.50;;;;;;;;;;4219302;33;20120;-70
2022/08/13 07:53:29;;;;;;;5.62;3.33;;;;;;;;;;4230518;33;20212;-69
2022/08/13 07:55:56;;;;;;;4.18;3.00;;;;;;;;;;4218908;33;20112;-69
2022/08/13 07:58:28;;;;;;;3.87;2.65;;;;;;;;;;4231832;33;20117;-69
2022/08/13 08:00:57;;;;;;;3.78;2.75;;;;;;;;;;4232240;33;20115;-67
2022/08/13 08:03:45;;;;;;;3.72;2.97;;;;;;;;;;4231884;33;20117;-67
2022/08/13 08:06:14;;;;;;;5.90;2.85;;;;;;;;;;4231903;33;20128;-67
2022/08/13 08:08:42;;;;;;;3.08;2.70;;;;;;;;;;4231783;33;20104;-67
2022/08/13 08:11:10;;;;;;;5.57;2.80;;;;;;;;;;4231668;33;20219;-68
2022/08/13 08:13:36;;;;;;;4.12;2.70;;;;;;;;;;4231932;33;20113;-68
2022/08/13 08:16:04;;;;;;;5.28;2.65;;;;;;;;;;4231780;33;20188;-68
2022/08/13 08:18:32;;;;;;;5.47;2.45;;;;;;;;;;4230572;33;20120;-68
2022/08/13 08:21:08;;;;;;;3.30;2.60;;;;;;;;;;4233172;33;20112;-67
2022/08/13 08:23:35;;;;;;;4.05;2.80;;;;;;;;;;4234116;33;20204;-68
2022/08/13 08:26:07;;;;;;;2.55;2.12;;;;;;;;;;4234106;33;20544;-67
2022/08/13 08:28:35;;;;;;;3.45;2.25;;;;;;;;;;4234018;33;20524;-68
2022/08/13 08:31:06;;;;;;;8.13;2.20;;;;;;;;;;4233813;33;20128;-68
2022/08/13 08:33:34;;;;;;;3.45;2.40;;;;;;;;;;4233800;33;20122;-68
2022/08/13 08:36:02;;;;;;;2.37;2.05;;;;;;;;;;4233430;33;20104;-69
2022/08/13 08:43:59;;;;;;;5.87;3.40;;;;;;;;;;4232416;33;20215;-69
2022/08/13 08:46:25;;;;;;;1.90;1.77;;;;;;;;;;4232306;33;20124;-69
2022/08/13 08:48:54;;;;;;;11.65;2.17;;;;;;;;;;4232181;33;20131;-69
2022/08/13 08:51:20;;;;;;;3.78;2.58;;;;;;;;;;4233461;33;20121;-69
2022/08/13 08:53:47;;;;;;;2.15;1.95;;;;;;;;;;4233490;33;20148;-68
2022/08/13 08:56:16;;;;;;;5.72;2.40;;;;;;;;;;4232005;33;20508;-69
2022/08/13 08:58:42;;;;;;;7.70;2.62;;;;;;;;;;4232131;33;20141;-69
2022/08/13 09:01:10;;;;;;;2.12;1.62;;;;;;;;;;4232380;33;20097;-68
2022/08/13 09:03:42;;;;;;;2.42;2.08;;;;;;;;;;4233453;33;20208;-67
2022/08/13 09:06:08;;;;;;;4.65;2.45;;;;;;;;;;4233316;33;20117;-70
2022/08/13 09:08:36;;;;;;;3.00;2.08;;;;;;;;;;4232011;33;20124;-68
2022/08/13 09:11:03;;;;;;;1.80;1.70;;;;;;;;;;4233512;33;20127;-68
2022/08/13 09:13:29;;;;;;;2.15;2.00;;;;;;;;;;4233381;33;20115;-68
2022/08/13 09:15:57;;;;;;;2.10;1.90;;;;;;;;;;4233488;33;20129;-67
2022/08/13 09:18:24;;;;;;;5.97;2.15;;;;;;;;;;4231853;33;20518;-67
2022/08/13 09:20:50;;;;;;;2.85;2.35;;;;;;;;;;4233423;33;20127;-67
2022/08/13 09:23:17;;;;;;;4.30;1.83;;;;;;;;;;4233167;33;20196;-67
2022/08/13 09:25:50;;;;;;;4.72;1.90;;;;;;;;;;4231846;33;20494;-67
2022/08/13 09:28:23;;;;;;;2.12;1.92;;;;;;;;;;4233264;33;20509;-67
2022/08/13 09:30:51;;;;;;;2.90;2.00;;;;;;;;;;4233130;33;20121;-67
2022/08/13 09:33:19;;;;;;;2.90;2.12;;;;;;;;;;4233156;33;20144;-67
2022/08/13 09:35:47;;;;;;;1.92;1.75;;;;;;;;;;4233018;33;20485;-67
2022/08/13 09:38:15;;;;;;;2.08;1.80;;;;;;;;;;4233007;33;20105;-67
2022/08/13 09:41:15;;;;;;;3.70;2.03;;;;;;;;;;4233073;33;20099;-67
2022/08/13 09:43:41;;;;;;;6.82;1.92;;;;;;;;;;4221391;33;20117;-67
2022/08/13 09:46:08;;;;;;;4.07;1.50;;;;;;;;;;4233436;33;20208;-67
2022/08/13 09:48:35;;;;;;;2.92;1.85;;;;;;;;;;4233027;33;20565;-68
2022/08/13 09:51:02;;;;;;;1.60;1.50;;;;;;;;;;4233051;33;20105;-67
2022/08/13 09:53:29;;;;;;;3.05;1.77;;;;;;;;;;4233038;33;20128;-67
2022/08/13 09:55:55;;;;;;;2.05;1.85;;;;;;;;;;4233195;33;20461;-67
2022/08/13 09:58:23;;;;;;;1.85;1.73;;;;;;;;;;4232977;33;20124;-67
2022/08/13 10:00:50;;;;;;;2.08;1.77;;;;;;;;;;4232928;33;20121;-67
2022/08/13 10:03:17;;;;;;;4.10;1.90;;;;;;;;;;4232898;33;20188;-67
2022/08/13 10:05:46;;;;;;;2.08;1.87;;;;;;;;;;4232999;33;20113;-68
2022/08/13 10:08:17;;;;;;;2.58;1.90;;;;;;;;;;4233162;33;20104;-67
2022/08/13 10:10:49;;;;;;;4.72;1.70;;;;;;;;;;4233122;33;20183;-67
2022/08/13 10:13:15;;;;;;;6.95;2.05;;;;;;;;;;4232887;33;20107;-67
2022/08/13 10:15:42;;;;;;;3.72;1.90;;;;;;;;;;4232765;33;20101;-67
2022/08/13 10:18:08;;;;;;;1.83;1.73;;;;;;;;;;4231599;33;20115;-68
2022/08/13 10:20:39;;;;;;;2.70;1.92;;;;;;;;;;4232912;33;20224;-66
2022/08/13 10:23:07;;;;;;;4.12;1.95;;;;;;;;;;4232791;33;20089;-67
2022/08/13 10:25:34;;;;;;;3.17;2.03;;;;;;;;;;4208027;33;20113;-68
2022/08/13 10:28:00;;;;;;;3.58;2.40;;;;;;;;;;4232696;33;20113;-68
2022/08/13 10:30:27;;;;;;;4.47;1.90;;;;;;;;;;4232734;33;20093;-68
2022/08/13 10:32:55;;;;;;;2.75;1.92;;;;;;;;;;4219627;33;20121;-68
2022/08/13 10:35:27;;;;;;;1.50;1.40;;;;;;;;;;4232439;33;20132;-68
2022/08/13 10:37:56;;;;;;;2.97;1.60;;;;;;;;;;4232550;33;20193;-68
2022/08/13 10:40:26;;;;;;;3.05;1.98;;;;;;;;;;4232602;33;20113;-68
2022/08/13 10:42:53;;;;;;;4.03;1.65;;;;;;;;;;4231896;33;20124;-68
2022/08/13 10:45:24;;;;;;;1.87;1.77;;;;;;;;;;4232467;33;20454;-68
2022/08/13 10:47:51;;;;;;;3.72;2.25;;;;;;;;;;4232594;33;20513;-68
2022/08/13 10:50:20;;;;;;;3.08;1.90;;;;;;;;;;4232456;33;20120;-68
2022/08/13 10:52:46;;;;;;;2.70;1.95;;;;;;;;;;4231095;33;20093;-68
2022/08/13 10:55:14;;;;;;;2.47;1.70;;;;;;;;;;4232535;33;20127;-67
2022/08/13 10:57:42;;;;;;;4.60;1.95;;;;;;;;;;4232373;33;20127;-68
2022/08/13 11:00:14;;;;;;;2.60;2.10;;;;;;;;;;4232446;33;20504;-67
2022/08/13 11:02:41;;;;;;;2.17;1.95;;;;;;;;;;4232334;33;20441;-68
2022/08/13 11:05:08;;;;;;;1.87;1.77;;;;;;;;;;4232283;33;20841;-68
2022/08/13 11:07:38;;;;;;;1.67;1.58;;;;;;;;;;4232549;33;20120;-68
2022/08/13 11:10:06;;;;;;;9.20;2.20;;;;;;;;;;4232381;33;20212;-68
2022/08/13 11:12:33;;;;;;;1.92;1.50;;;;;;;;;;4232275;33;20121;-68
2022/08/13 11:15:00;;;;;;;2.28;1.90;;;;;;;;;;4232160;33;20148;-69
2022/08/13 11:17:27;;;;;;;1.98;1.70;;;;;;;;;;4232421;33;20151;-68
2022/08/13 11:19:53;;;;;;;2.53;2.00;;;;;;;;;;4232352;33;20516;-68
2022/08/13 11:22:28;;;;;;;2.37;2.17;;;;;;;;;;4232194;33;20199;-67
2022/08/13 11:24:55;;;;;;;1.87;1.75;;;;;;;;;;4232391;33;20101;-68
2022/08/13 11:27:21;;;;;;;2.83;1.90;;;;;;;;;;4230656;33;20105;-67
2022/08/13 11:29:47;;;;;;;2.05;1.90;;;;;;;;;;4232163;33;20148;-68
2022/08/13 11:32:13;;;;;;;5.87;1.95;;;;;;;;;;4232060;33;20117;-68
2022/08/13 11:34:39;;;;;;;2.85;2.08;;;;;;;;;;4232187;33;20120;-68
2022/08/13 11:37:05;;;;;;;2.80;2.10;;;;;;;;;;4232279;33;20465;-68
2022/08/13 11:39:31;;;;;;;2.50;1.73;;;;;;;;;;4231823;33;20135;-68
2022/08/13 11:41:57;;;;;;;5.12;2.40;;;;;;;;;;4232211;33;20120;-67
2022/08/13 11:44:23;;;;;;;1.80;1.70;;;;;;;;;;4232088;33;20561;-68
2022/08/13 11:46:49;;;;;;;2.80;1.95;;;;;;;;;;4231960;33;20576;-68
2022/08/13 11:49:15;;;;;;;6.75;2.15;;;;;;;;;;4232283;33;20104;-68
2022/08/13 11:51:41;;;;;;;2.10;1.90;;;;;;;;;;4231846;33;20265;-68
2022/08/13 11:54:07;;;;;;;5.00;2.55;;;;;;;;;;4232248;33;20106;-67
2022/08/13 11:56:33;;;;;;;5.93;3.17;;;;;;;;;;4234192;33;20464;-68
2022/08/13 11:58:59;;;;;;;4.75;2.78;;;;;;;;;;4234276;33;20128;-68
2022/08/13 12:01:25;;;;;;;4.80;2.37;;;;;;;;;;4234023;33;20104;-68
2022/08/13 12:03:53;;;;;;;5.93;2.33;;;;;;;;;;4234158;33;20128;-68
2022/08/13 12:06:19;;;;;;;3.33;2.70;;;;;;;;;;4234097;33;20458;-68
2022/08/13 12:08:45;;;;;;;7.32;2.47;;;;;;;;;;4234194;33;20110;-68
2022/08/13 12:11:11;;;;;;;11.40;2.40;;;;;;;;;;4233843;33;20109;-68
2022/08/13 12:13:37;;;;;;;5.12;2.08;;;;;;;;;;4233964;33;20558;-68
2022/08/13 12:16:03;;;;;;;6.22;2.50;;;;;;;;;;4234069;33;20136;-68
2022/08/13 12:18:29;;;;;;;4.07;2.20;;;;;;;;;;4233732;33;20113;-69
2022/08/13 12:20:56;;;;;;;3.60;2.40;;;;;;;;;;4233954;33;20532;-68
2022/08/13 12:23:22;;;;;;;2.80;2.40;;;;;;;;;;4233732;33;20127;-68
2022/08/13 12:25:48;;;;;;;2.33;2.10;;;;;;;;;;4233771;33;20548;-67
2022/08/13 12:28:23;;;;;;;3.45;2.22;;;;;;;;;;4233818;33;20545;-68
2022/08/13 12:30:51;;;;;;;3.17;2.33;;;;;;;;;;4233779;33;20117;-68
2022/08/13 12:33:18;;;;;;;2.58;2.20;;;;;;;;;;4233682;33;20199;-68
2022/08/13 12:35:45;;;;;;;7.12;2.53;;;;;;;;;;4233643;33;20111;-68
2022/08/13 12:38:14;;;;;;;3.30;2.67;;;;;;;;;;4233552;33;20128;-68
2022/08/13 12:40:42;;;;;;;4.22;2.50;;;;;;;;;;4233732;33;20124;-68
2022/08/13 12:43:09;;;;;;;4.85;2.35;;;;;;;;;;4233697;33;20111;-67
2022/08/13 12:45:36;;;;;;;3.97;2.75;;;;;;;;;;4233729;33;20312;-68
2022/08/13 12:48:07;;;;;;;4.60;2.70;;;;;;;;;;4232459;33;20104;-68
2022/08/13 12:50:34;;;;;;;3.40;2.42;;;;;;;;;;4233692;33;20112;-68
2022/08/13 12:53:00;;;;;;;4.28;2.50;;;;;;;;;;4233479;33;20223;-68
2022/08/13 12:55:27;;;;;;;6.60;2.67;;;;;;;;;;4233658;33;20541;-67
2022/08/13 12:57:53;;;;;;;3.85;2.35;;;;;;;;;;4232238;33;20089;-68
2022/08/13 13:00:20;;;;;;;3.20;2.62;;;;;;;;;;4233872;33;20461;-68
2022/08/13 13:02:47;;;;;;;2.67;2.30;;;;;;;;;;4233405;33;20101;-68
2022/08/13 13:05:14;;;;;;;4.87;2.37;;;;;;;;;;4233557;33;20117;-68
2022/08/13 13:07:42;;;;;;;3.12;2.20;;;;;;;;;;4232931;33;20273;-68
2022/08/13 13:10:09;;;;;;;6.32;2.33;;;;;;;;;;4233447;33;20192;-67
2022/08/13 13:12:35;;;;;;;5.43;2.37;;;;;;;;;;4232049;33;20729;-67
2022/08/13 13:15:01;;;;;;;4.40;2.22;;;;;;;;;;4233779;33;20109;-67
2022/08/13 13:17:29;;;;;;;3.95;2.42;;;;;;;;;;4233191;33;20100;-68
2022/08/13 13:19:55;;;;;;;7.62;2.40;;;;;;;;;;4233327;33;20498;-68
2022/08/13 13:22:21;;;;;;;7.70;3.22;;;;;;;;;;4233233;33;20105;-68
2022/08/13 13:24:47;;;;;;;7.30;2.65;;;;;;;;;;4233360;33;20124;-68
2022/08/13 13:27:13;;;;;;;4.40;2.22;;;;;;;;;;4233267;33;20085;-68
2022/08/13 13:29:39;;;;;;;3.50;2.50;;;;;;;;;;4233276;33;20513;-69
2022/08/13 13:32:07;;;;;;;5.43;2.30;;;;;;;;;;4233495;33;20101;-68
2022/08/13 13:34:33;;;;;;;5.45;2.62;;;;;;;;;;4231781;33;20121;-69
2022/08/13 13:36:59;;;;;;;6.10;2.58;;;;;;;;;;4233363;33;20121;-69
2022/08/13 13:39:25;;;;;;;5.28;3.22;;;;;;;;;;4231581;33;20616;-68
2022/08/13 13:41:51;;;;;;;3.62;2.75;;;;;;;;;;4233114;33;20108;-68
2022/08/13 13:44:17;;;;;;;7.87;2.53;;;;;;;;;;4233146;33;20228;-68
2022/08/13 13:46:43;;;;;;;7.12;2.90;;;;;;;;;;4233047;33;20564;-68
2022/08/13 13:49:09;;;;;;;6.65;2.85;;;;;;;;;;4233039;33;20232;-68
2022/08/13 13:51:35;;;;;;;7.47;2.60;;;;;;;;;;4232971;33;20121;-68
2022/08/13 13:54:01;;;;;;;4.55;3.22;;;;;;;;;;4233021;33;20104;-68
2022/08/13 13:56:27;;;;;;;9.30;2.60;;;;;;;;;;4233162;33;20117;-68
2022/08/13 13:58:54;;;;;;;3.15;2.25;;;;;;;;;;4232920;33;20097;-68
2022/08/13 14:01:20;;;;;;;3.95;2.25;;;;;;;;;;4232902;33;20092;-68
2022/08/13 14:03:46;;;;;;;4.32;2.30;;;;;;;;;;4232877;33;20204;-66
2022/08/13 14:06:21;;;;;;;2.53;1.80;;;;;;;;;;4232810;33;20132;-68
2022/08/13 14:08:50;;;;;;;2.15;1.95;;;;;;;;;;4232948;33;20207;-68
2022/08/13 14:11:18;;;;;;;3.80;1.60;;;;;;;;;;4232719;33;20180;-68
2022/08/13 14:13:44;;;;;;;9.02;2.47;;;;;;;;;;4232917;33;20132;-68
2022/08/13 14:16:14;;;;;;;5.47;1.90;;;;;;;;;;4232974;33;20093;-68
2022/08/13 14:18:41;;;;;;;5.72;3.45;;;;;;;;;;4230755;33;20129;-68
2022/08/13 14:21:08;;;;;;;3.08;2.28;;;;;;;;;;4231269;33;20620;-68
2022/08/13 14:23:35;;;;;;;2.83;2.47;;;;;;;;;;4232702;33;20123;-69
2022/08/13 14:26:04;;;;;;;3.05;2.00;;;;;;;;;;4231507;33;20103;-69
2022/08/13 14:28:31;;;;;;;4.60;2.25;;;;;;;;;;4232665;33;20218;-69
2022/08/13 14:30:58;;;;;;;4.50;2.25;;;;;;;;;;4232975;33;20097;-68
2022/08/13 14:33:26;;;;;;;2.83;2.08;;;;;;;;;;4232614;33;20131;-68
2022/08/13 14:38:22;;;;;;;3.95;2.90;;;;;;;;;;3850579;37;20091;-67
2022/08/13 14:40:48;;;;;;;6.65;2.20;;;;;;;;;;4404551;32;20077;-67
2022/08/13 14:43:15;;;;;;;6.47;2.50;;;;;;;;;;4404534;32;20202;-67
2022/08/13 14:45:44;;;;;;;8.50;2.55;;;;;;;;;;4404419;32;20101;-67
2022/08/13 14:48:14;;;;;;;6.80;2.95;;;;;;;;;;4404341;32;20099;-67
2022/08/13 14:50:45;;;;;;;5.00;2.80;;;;;;;;;;4404492;32;20109;-67
2022/08/13 14:53:12;;;;;;;2.47;2.20;;;;;;;;;;4404845;32;20409;-67
2022/08/13 14:55:39;;;;;;;6.20;2.92;;;;;;;;;;4404366;32;20533;-68
2022/08/13 14:58:05;;;;;;;4.47;2.70;;;;;;;;;;4404490;32;20111;-67
2022/08/13 15:00:32;;;;;;;6.00;2.80;;;;;;;;;;4404367;32;20203;-67
2022/08/13 15:03:00;;;;;;;7.12;2.83;;;;;;;;;;4404358;32;20564;-67
2022/08/13 15:05:27;;;;;;;6.25;2.47;;;;;;;;;;4390477;32;20191;-67
2022/08/13 15:07:54;;;;;;;5.68;2.40;;;;;;;;;;4404369;32;20101;-66
2022/08/13 15:10:23;;;;;;;4.57;2.60;;;;;;;;;;4404431;32;20181;-67
2022/08/13 15:12:50;;;;;;;3.70;2.80;;;;;;;;;;4404317;32;20105;-67
2022/08/13 15:15:18;;;;;;;11.25;3.80;;;;;;;;;;4404136;32;20081;-67
2022/08/13 15:17:46;;;;;;;3.47;2.80;;;;;;;;;;4404169;32;20117;-67
2022/08/13 15:20:19;;;;;;;4.72;3.03;;;;;;;;;;4404046;32;20129;-67
2022/08/13 15:22:46;;;;;;;7.82;4.47;;;;;;;;;;4404243;32;20117;-68
2022/08/13 15:25:14;;;;;;;12.90;4.37;;;;;;;;;;4404156;32;20144;-68
2022/08/13 15:27:45;;;;;;;11.05;5.10;;;;;;;;;;4404043;32;20802;-68
2022/08/13 15:30:19;;;;;;;11.85;3.87;;;;;;;;;;4404072;32;20197;-67
2022/08/13 15:33:10;;;;;;;10.60;3.62;;;;;;;;;;4402804;32;20484;-68
2022/08/13 15:35:41;;;;;;;8.25;2.95;;;;;;;;;;4404130;32;20556;-68